Terminal Aerodrome Forecast
Issued by NWS

Home | Current Version | Previous Version | Text Only | Print | Product List | Glossary On
Versions: 1 2 3 4 5 6 7 8 9 10 11 12 13 14 15 16 17 18 19 20 21 22 23 24 25 26 27 28 29 30 31 32 33 34
000
FTUS43 KDDC 142128 AAC
TAFGCK
TAF AMD
KGCK 142128Z 1421/1518 VRB05KT P6SM OVC020
      TEMPO 1421/1423 2SM RA
     FM142300 VRB05KT P6SM -FZRA OVC020
     FM150200 10007KT P6SM -FZRA OVC008
     FM150300 10007KT 3SM -FZRA OVC008=

USA.gov is the U.S. government's official web portal to all federal, state and local government web resources and services.